sensor_id;sensor_type;location;lat;lon;timestamp;P1;durP1;ratioP1;P2;durP2;ratioP2
21245;SDS011;10781;50.928;4.440;2023-11-19T00:01:48;10.90;;;3.55;;
21245;SDS011;10781;50.928;4.440;2023-11-19T00:04:16;8.50;;;3.92;;
21245;SDS011;10781;50.928;4.440;2023-11-19T00:06:42;8.52;;;3.78;;
21245;SDS011;10781;50.928;4.440;2023-11-19T00:09:08;11.13;;;3.70;;
21245;SDS011;10781;50.928;4.440;2023-11-19T00:11:34;10.20;;;3.78;;
21245;SDS011;10781;50.928;4.440;2023-11-19T00:14:00;10.30;;;4.05;;
21245;SDS011;10781;50.928;4.440;2023-11-19T00:16:26;10.73;;;4.38;;
21245;SDS011;10781;50.928;4.440;2023-11-19T00:18:52;10.60;;;4.20;;
21245;SDS011;10781;50.928;4.440;2023-11-19T00:21:21;6.13;;;3.78;;
21245;SDS011;10781;50.928;4.440;2023-11-19T00:23:47;13.10;;;4.43;;
21245;SDS011;10781;50.928;4.440;2023-11-19T00:28:48;10.18;;;4.22;;
21245;SDS011;10781;50.928;4.440;2023-11-19T00:31:13;10.27;;;4.20;;
21245;SDS011;10781;50.928;4.440;2023-11-19T00:33:39;9.48;;;3.92;;
21245;SDS011;10781;50.928;4.440;2023-11-19T00:36:05;9.48;;;4.25;;
21245;SDS011;10781;50.928;4.440;2023-11-19T00:38:31;12.38;;;4.03;;
21245;SDS011;10781;50.928;4.440;2023-11-19T00:40:56;14.05;;;3.90;;
21245;SDS011;10781;50.928;4.440;2023-11-19T00:43:22;11.20;;;4.38;;
21245;SDS011;10781;50.928;4.440;2023-11-19T00:45:48;10.70;;;4.15;;
21245;SDS011;10781;50.928;4.440;2023-11-19T00:48:15;13.93;;;4.28;;
21245;SDS011;10781;50.928;4.440;2023-11-19T00:50:42;12.07;;;4.10;;
21245;SDS011;10781;50.928;4.440;2023-11-19T00:53:09;11.95;;;3.70;;
21245;SDS011;10781;50.928;4.440;2023-11-19T00:55:35;14.00;;;4.20;;
21245;SDS011;10781;50.928;4.440;2023-11-19T00:58:00;9.50;;;3.80;;
21245;SDS011;10781;50.928;4.440;2023-11-19T01:00:26;10.40;;;3.58;;
21245;SDS011;10781;50.928;4.440;2023-11-19T01:02:52;14.75;;;3.90;;
21245;SDS011;10781;50.928;4.440;2023-11-19T01:05:18;10.68;;;3.80;;
21245;SDS011;10781;50.928;4.440;2023-11-19T01:07:48;20.20;;;3.67;;
21245;SDS011;10781;50.928;4.440;2023-11-19T01:10:14;12.88;;;3.70;;
21245;SDS011;10781;50.928;4.440;2023-11-19T01:12:41;10.55;;;3.20;;
21245;SDS011;10781;50.928;4.440;2023-11-19T01:15:07;14.02;;;3.40;;
21245;SDS011;10781;50.928;4.440;2023-11-19T01:17:33;15.98;;;3.30;;
21245;SDS011;10781;50.928;4.440;2023-11-19T01:19:58;14.93;;;3.40;;
21245;SDS011;10781;50.928;4.440;2023-11-19T01:22:24;14.48;;;3.40;;
21245;SDS011;10781;50.928;4.440;2023-11-19T01:24:50;14.18;;;3.53;;
21245;SDS011;10781;50.928;4.440;2023-11-19T01:27:17;13.57;;;3.22;;
21245;SDS011;10781;50.928;4.440;2023-11-19T01:29:42;15.23;;;3.40;;
21245;SDS011;10781;50.928;4.440;2023-11-19T01:32:08;15.43;;;2.92;;
21245;SDS011;10781;50.928;4.440;2023-11-19T01:34:34;19.00;;;4.10;;
21245;SDS011;10781;50.928;4.440;2023-11-19T01:37:00;15.57;;;3.53;;
21245;SDS011;10781;50.928;4.440;2023-11-19T01:39:26;13.32;;;3.25;;
21245;SDS011;10781;50.928;4.440;2023-11-19T01:41:52;14.70;;;3.00;;
21245;SDS011;10781;50.928;4.440;2023-11-19T01:44:19;16.67;;;3.20;;
21245;SDS011;10781;50.928;4.440;2023-11-19T01:46:45;17.60;;;3.30;;
21245;SDS011;10781;50.928;4.440;2023-11-19T01:49:15;19.15;;;3.20;;
21245;SDS011;10781;50.928;4.440;2023-11-19T01:51:41;19.95;;;3.95;;
21245;SDS011;10781;50.928;4.440;2023-11-19T01:54:07;14.70;;;3.47;;
21245;SDS011;10781;50.928;4.440;2023-11-19T01:56:33;12.60;;;2.90;;
21245;SDS011;10781;50.928;4.440;2023-11-19T01:59:00;14.25;;;3.63;;
21245;SDS011;10781;50.928;4.440;2023-11-19T02:01:27;17.60;;;3.03;;
21245;SDS011;10781;50.928;4.440;2023-11-19T02:03:54;11.40;;;2.85;;
21245;SDS011;10781;50.928;4.440;2023-11-19T02:06:20;11.75;;;3.22;;
21245;SDS011;10781;50.928;4.440;2023-11-19T02:08:46;16.38;;;3.80;;
21245;SDS011;10781;50.928;4.440;2023-11-19T02:11:12;17.75;;;4.10;;
21245;SDS011;10781;50.928;4.440;2023-11-19T02:13:37;14.05;;;3.85;;
21245;SDS011;10781;50.928;4.440;2023-11-19T02:16:06;18.48;;;4.18;;
21245;SDS011;10781;50.928;4.440;2023-11-19T02:18:34;15.52;;;4.10;;
21245;SDS011;10781;50.928;4.440;2023-11-19T02:21:00;17.08;;;3.92;;
21245;SDS011;10781;50.928;4.440;2023-11-19T02:23:28;24.65;;;3.70;;
21245;SDS011;10781;50.928;4.440;2023-11-19T02:26:02;17.60;;;3.70;;
21245;SDS011;10781;50.928;4.440;2023-11-19T02:28:48;23.08;;;3.67;;
21245;SDS011;10781;50.928;4.440;2023-11-19T02:31:13;23.15;;;3.63;;
21245;SDS011;10781;50.928;4.440;2023-11-19T02:33:39;19.88;;;3.97;;
21245;SDS011;10781;50.928;4.440;2023-11-19T02:36:06;18.27;;;3.95;;
21245;SDS011;10781;50.928;4.440;2023-11-19T02:38:35;13.65;;;3.10;;
21245;SDS011;10781;50.928;4.440;2023-11-19T02:41:03;15.25;;;3.45;;
21245;SDS011;10781;50.928;4.440;2023-11-19T02:43:34;21.67;;;3.90;;
21245;SDS011;10781;50.928;4.440;2023-11-19T02:46:02;22.25;;;3.72;;
21245;SDS011;10781;50.928;4.440;2023-11-19T02:48:35;20.20;;;3.92;;
21245;SDS011;10781;50.928;4.440;2023-11-19T02:51:01;19.10;;;3.92;;
21245;SDS011;10781;50.928;4.440;2023-11-19T02:53:28;18.63;;;3.50;;
21245;SDS011;10781;50.928;4.440;2023-11-19T02:55:54;18.75;;;3.60;;
21245;SDS011;10781;50.928;4.440;2023-11-19T02:58:26;21.27;;;3.83;;
21245;SDS011;10781;50.928;4.440;2023-11-19T03:00:53;24.52;;;3.92;;
21245;SDS011;10781;50.928;4.440;2023-11-19T03:03:23;18.40;;;3.67;;
21245;SDS011;10781;50.928;4.440;2023-11-19T03:05:55;23.50;;;4.05;;
21245;SDS011;10781;50.928;4.440;2023-11-19T03:08:21;22.70;;;3.90;;
21245;SDS011;10781;50.928;4.440;2023-11-19T03:10:47;18.35;;;3.35;;
21245;SDS011;10781;50.928;4.440;2023-11-19T03:13:13;18.13;;;3.45;;
21245;SDS011;10781;50.928;4.440;2023-11-19T03:15:39;20.17;;;3.38;;
21245;SDS011;10781;50.928;4.440;2023-11-19T03:18:05;20.25;;;3.38;;
21245;SDS011;10781;50.928;4.440;2023-11-19T03:20:31;16.55;;;3.50;;
21245;SDS011;10781;50.928;4.440;2023-11-19T03:22:57;19.33;;;3.45;;
21245;SDS011;10781;50.928;4.440;2023-11-19T03:25:26;18.73;;;3.28;;
21245;SDS011;10781;50.928;4.440;2023-11-19T03:28:02;24.67;;;3.25;;
21245;SDS011;10781;50.928;4.440;2023-11-19T03:30:29;17.63;;;4.07;;
21245;SDS011;10781;50.928;4.440;2023-11-19T03:32:55;18.30;;;3.60;;
21245;SDS011;10781;50.928;4.440;2023-11-19T03:35:24;18.27;;;4.05;;
21245;SDS011;10781;50.928;4.440;2023-11-19T03:37:50;19.23;;;3.30;;
21245;SDS011;10781;50.928;4.440;2023-11-19T03:40:17;17.90;;;3.90;;
21245;SDS011;10781;50.928;4.440;2023-11-19T03:42:44;18.15;;;3.40;;
21245;SDS011;10781;50.928;4.440;2023-11-19T03:45:10;20.40;;;4.10;;
21245;SDS011;10781;50.928;4.440;2023-11-19T03:47:36;17.08;;;3.05;;
21245;SDS011;10781;50.928;4.440;2023-11-19T03:50:02;24.70;;;3.80;;
21245;SDS011;10781;50.928;4.440;2023-11-19T03:52:28;22.38;;;3.58;;
21245;SDS011;10781;50.928;4.440;2023-11-19T03:54:54;25.10;;;3.85;;
21245;SDS011;10781;50.928;4.440;2023-11-19T03:57:20;22.63;;;3.85;;
21245;SDS011;10781;50.928;4.440;2023-11-19T03:59:46;23.88;;;3.67;;
21245;SDS011;10781;50.928;4.440;2023-11-19T04:02:12;24.27;;;4.05;;
21245;SDS011;10781;50.928;4.440;2023-11-19T04:04:37;17.30;;;3.95;;
21245;SDS011;10781;50.928;4.440;2023-11-19T04:07:06;17.80;;;4.00;;
21245;SDS011;10781;50.928;4.440;2023-11-19T04:09:31;20.58;;;3.60;;
21245;SDS011;10781;50.928;4.440;2023-11-19T04:12:00;16.90;;;3.58;;
21245;SDS011;10781;50.928;4.440;2023-11-19T04:14:26;20.02;;;3.50;;
21245;SDS011;10781;50.928;4.440;2023-11-19T04:16:52;18.08;;;3.67;;
21245;SDS011;10781;50.928;4.440;2023-11-19T04:19:18;16.15;;;3.60;;
21245;SDS011;10781;50.928;4.440;2023-11-19T04:21:44;18.95;;;3.30;;
21245;SDS011;10781;50.928;4.440;2023-11-19T04:24:10;21.35;;;3.78;;
21245;SDS011;10781;50.928;4.440;2023-11-19T04:26:39;25.40;;;4.50;;
21245;SDS011;10781;50.928;4.440;2023-11-19T04:29:11;24.67;;;4.07;;
21245;SDS011;10781;50.928;4.440;2023-11-19T04:31:42;18.40;;;3.90;;
21245;SDS011;10781;50.928;4.440;2023-11-19T04:34:08;27.00;;;4.38;;
21245;SDS011;10781;50.928;4.440;2023-11-19T04:36:33;21.33;;;3.88;;
21245;SDS011;10781;50.928;4.440;2023-11-19T04:39:00;19.08;;;4.28;;
21245;SDS011;10781;50.928;4.440;2023-11-19T04:41:26;23.73;;;3.97;;
21245;SDS011;10781;50.928;4.440;2023-11-19T04:43:55;23.08;;;3.95;;
21245;SDS011;10781;50.928;4.440;2023-11-19T04:46:20;23.15;;;3.95;;
21245;SDS011;10781;50.928;4.440;2023-11-19T04:48:46;16.70;;;3.75;;
21245;SDS011;10781;50.928;4.440;2023-11-19T04:51:12;24.27;;;4.10;;
21245;SDS011;10781;50.928;4.440;2023-11-19T04:53:38;19.02;;;3.67;;
21245;SDS011;10781;50.928;4.440;2023-11-19T04:56:12;23.63;;;3.50;;
21245;SDS011;10781;50.928;4.440;2023-11-19T04:58:38;22.15;;;3.88;;
21245;SDS011;10781;50.928;4.440;2023-11-19T05:01:04;29.15;;;4.18;;
21245;SDS011;10781;50.928;4.440;2023-11-19T05:03:30;20.92;;;4.28;;
21245;SDS011;10781;50.928;4.440;2023-11-19T05:05:59;23.88;;;3.92;;
21245;SDS011;10781;50.928;4.440;2023-11-19T05:08:25;24.75;;;4.35;;
21245;SDS011;10781;50.928;4.440;2023-11-19T05:10:51;28.30;;;4.95;;
21245;SDS011;10781;50.928;4.440;2023-11-19T05:13:16;23.02;;;4.68;;
21245;SDS011;10781;50.928;4.440;2023-11-19T05:15:42;27.58;;;4.55;;
21245;SDS011;10781;50.928;4.440;2023-11-19T05:18:08;29.80;;;4.50;;
21245;SDS011;10781;50.928;4.440;2023-11-19T05:20:33;29.83;;;5.13;;
21245;SDS011;10781;50.928;4.440;2023-11-19T05:22:59;25.05;;;4.60;;
21245;SDS011;10781;50.928;4.440;2023-11-19T05:25:25;30.08;;;4.65;;
21245;SDS011;10781;50.928;4.440;2023-11-19T05:27:54;32.60;;;4.72;;
21245;SDS011;10781;50.928;4.440;2023-11-19T05:30:20;32.13;;;4.30;;
21245;SDS011;10781;50.928;4.440;2023-11-19T05:32:46;30.08;;;4.75;;
21245;SDS011;10781;50.928;4.440;2023-11-19T05:35:12;25.95;;;4.63;;
21245;SDS011;10781;50.928;4.440;2023-11-19T05:37:37;27.40;;;4.30;;
21245;SDS011;10781;50.928;4.440;2023-11-19T05:40:03;22.90;;;4.32;;
21245;SDS011;10781;50.928;4.440;2023-11-19T05:42:33;28.60;;;4.93;;
21245;SDS011;10781;50.928;4.440;2023-11-19T05:44:59;20.50;;;4.45;;
21245;SDS011;10781;50.928;4.440;2023-11-19T05:47:24;28.38;;;4.50;;
21245;SDS011;10781;50.928;4.440;2023-11-19T05:49:50;24.40;;;4.32;;
21245;SDS011;10781;50.928;4.440;2023-11-19T05:52:15;26.92;;;3.72;;
21245;SDS011;10781;50.928;4.440;2023-11-19T05:54:41;25.63;;;3.85;;
21245;SDS011;10781;50.928;4.440;2023-11-19T05:57:07;25.95;;;4.30;;
21245;SDS011;10781;50.928;4.440;2023-11-19T05:59:35;29.67;;;4.70;;
21245;SDS011;10781;50.928;4.440;2023-11-19T06:02:02;33.50;;;4.93;;
21245;SDS011;10781;50.928;4.440;2023-11-19T06:04:28;25.77;;;4.55;;
21245;SDS011;10781;50.928;4.440;2023-11-19T06:06:53;29.98;;;4.72;;
21245;SDS011;10781;50.928;4.440;2023-11-19T06:09:20;24.85;;;4.10;;
21245;SDS011;10781;50.928;4.440;2023-11-19T06:11:47;30.77;;;4.85;;
21245;SDS011;10781;50.928;4.440;2023-11-19T06:14:14;24.20;;;4.28;;
21245;SDS011;10781;50.928;4.440;2023-11-19T06:16:39;24.50;;;3.95;;
21245;SDS011;10781;50.928;4.440;2023-11-19T06:19:05;22.90;;;4.05;;
21245;SDS011;10781;50.928;4.440;2023-11-19T06:21:31;27.05;;;5.13;;
21245;SDS011;10781;50.928;4.440;2023-11-19T06:23:57;27.67;;;4.75;;
21245;SDS011;10781;50.928;4.440;2023-11-19T06:26:24;25.80;;;4.72;;
21245;SDS011;10781;50.928;4.440;2023-11-19T06:28:49;25.52;;;4.63;;
21245;SDS011;10781;50.928;4.440;2023-11-19T06:31:15;25.17;;;4.20;;
21245;SDS011;10781;50.928;4.440;2023-11-19T06:33:41;27.85;;;4.38;;
21245;SDS011;10781;50.928;4.440;2023-11-19T06:36:07;26.48;;;4.35;;
21245;SDS011;10781;50.928;4.440;2023-11-19T06:38:34;23.17;;;4.88;;
21245;SDS011;10781;50.928;4.440;2023-11-19T06:41:00;24.05;;;4.50;;
21245;SDS011;10781;50.928;4.440;2023-11-19T06:43:26;26.88;;;4.93;;
21245;SDS011;10781;50.928;4.440;2023-11-19T06:45:53;25.58;;;4.25;;
21245;SDS011;10781;50.928;4.440;2023-11-19T06:48:19;24.70;;;4.40;;
21245;SDS011;10781;50.928;4.440;2023-11-19T06:50:45;24.48;;;4.45;;
21245;SDS011;10781;50.928;4.440;2023-11-19T06:53:10;30.15;;;4.97;;
21245;SDS011;10781;50.928;4.440;2023-11-19T06:55:36;23.98;;;4.90;;
21245;SDS011;10781;50.928;4.440;2023-11-19T06:58:02;20.95;;;4.63;;
21245;SDS011;10781;50.928;4.440;2023-11-19T07:00:28;25.08;;;4.47;;
21245;SDS011;10781;50.928;4.440;2023-11-19T07:02:54;27.58;;;4.28;;
21245;SDS011;10781;50.928;4.440;2023-11-19T07:05:20;16.02;;;3.60;;
21245;SDS011;10781;50.928;4.440;2023-11-19T07:07:50;24.00;;;4.90;;
21245;SDS011;10781;50.928;4.440;2023-11-19T07:10:16;22.85;;;3.70;;
21245;SDS011;10781;50.928;4.440;2023-11-19T07:12:43;28.25;;;4.78;;
21245;SDS011;10781;50.928;4.440;2023-11-19T07:15:09;29.33;;;4.95;;
21245;SDS011;10781;50.928;4.440;2023-11-19T07:17:35;22.77;;;4.22;;
21245;SDS011;10781;50.928;4.440;2023-11-19T07:20:01;29.58;;;4.40;;
21245;SDS011;10781;50.928;4.440;2023-11-19T07:22:27;29.63;;;4.72;;
21245;SDS011;10781;50.928;4.440;2023-11-19T07:24:55;26.83;;;4.63;;
21245;SDS011;10781;50.928;4.440;2023-11-19T07:27:21;24.85;;;4.38;;
21245;SDS011;10781;50.928;4.440;2023-11-19T07:29:47;24.27;;;4.00;;
21245;SDS011;10781;50.928;4.440;2023-11-19T07:32:13;23.13;;;3.78;;
21245;SDS011;10781;50.928;4.440;2023-11-19T07:34:46;24.75;;;4.32;;
21245;SDS011;10781;50.928;4.440;2023-11-19T07:37:12;23.85;;;3.80;;
21245;SDS011;10781;50.928;4.440;2023-11-19T07:39:37;23.73;;;4.38;;
21245;SDS011;10781;50.928;4.440;2023-11-19T07:42:05;18.50;;;3.53;;
21245;SDS011;10781;50.928;4.440;2023-11-19T07:44:31;25.27;;;4.60;;
21245;SDS011;10781;50.928;4.440;2023-11-19T07:46:57;23.65;;;4.82;;
21245;SDS011;10781;50.928;4.440;2023-11-19T07:49:23;21.13;;;4.18;;
21245;SDS011;10781;50.928;4.440;2023-11-19T07:51:49;26.88;;;4.22;;
21245;SDS011;10781;50.928;4.440;2023-11-19T07:54:14;25.13;;;4.93;;
21245;SDS011;10781;50.928;4.440;2023-11-19T07:56:43;29.92;;;4.25;;
21245;SDS011;10781;50.928;4.440;2023-11-19T07:59:14;21.83;;;3.95;;
21245;SDS011;10781;50.928;4.440;2023-11-19T08:01:40;23.58;;;4.38;;
21245;SDS011;10781;50.928;4.440;2023-11-19T08:04:05;23.80;;;4.00;;
21245;SDS011;10781;50.928;4.440;2023-11-19T08:06:31;20.80;;;3.88;;
21245;SDS011;10781;50.928;4.440;2023-11-19T08:08:57;26.83;;;4.60;;
21245;SDS011;10781;50.928;4.440;2023-11-19T08:11:23;21.15;;;4.28;;
21245;SDS011;10781;50.928;4.440;2023-11-19T08:13:49;20.42;;;4.20;;
21245;SDS011;10781;50.928;4.440;2023-11-19T08:16:15;21.88;;;3.88;;
21245;SDS011;10781;50.928;4.440;2023-11-19T08:18:52;27.85;;;4.28;;
21245;SDS011;10781;50.928;4.440;2023-11-19T08:21:18;15.98;;;3.45;;
21245;SDS011;10781;50.928;4.440;2023-11-19T08:23:45;19.55;;;4.25;;
21245;SDS011;10781;50.928;4.440;2023-11-19T08:26:11;16.10;;;3.65;;
21245;SDS011;10781;50.928;4.440;2023-11-19T08:28:37;25.75;;;4.25;;
21245;SDS011;10781;50.928;4.440;2023-11-19T08:31:02;19.08;;;3.85;;
21245;SDS011;10781;50.928;4.440;2023-11-19T08:33:30;23.77;;;4.30;;
21245;SDS011;10781;50.928;4.440;2023-11-19T08:35:56;19.63;;;3.83;;
21245;SDS011;10781;50.928;4.440;2023-11-19T08:38:21;27.95;;;4.00;;
21245;SDS011;10781;50.928;4.440;2023-11-19T08:40:47;19.33;;;3.58;;
21245;SDS011;10781;50.928;4.440;2023-11-19T08:43:13;22.08;;;4.40;;
21245;SDS011;10781;50.928;4.440;2023-11-19T08:45:38;14.75;;;3.35;;
21245;SDS011;10781;50.928;4.440;2023-11-19T08:48:04;21.20;;;3.72;;
21245;SDS011;10781;50.928;4.440;2023-11-19T08:50:30;19.13;;;3.72;;
21245;SDS011;10781;50.928;4.440;2023-11-19T08:52:56;20.20;;;3.30;;
21245;SDS011;10781;50.928;4.440;2023-11-19T08:55:21;19.75;;;3.47;;
21245;SDS011;10781;50.928;4.440;2023-11-19T08:57:47;20.10;;;3.60;;
21245;SDS011;10781;50.928;4.440;2023-11-19T09:00:13;22.58;;;3.60;;
21245;SDS011;10781;50.928;4.440;2023-11-19T09:02:41;21.92;;;3.70;;
21245;SDS011;10781;50.928;4.440;2023-11-19T09:05:08;17.33;;;3.83;;
21245;SDS011;10781;50.928;4.440;2023-11-19T09:07:33;23.45;;;3.38;;
21245;SDS011;10781;50.928;4.440;2023-11-19T09:09:59;17.35;;;3.60;;
21245;SDS011;10781;50.928;4.440;2023-11-19T09:12:25;23.40;;;4.50;;
21245;SDS011;10781;50.928;4.440;2023-11-19T09:14:50;18.63;;;3.83;;
21245;SDS011;10781;50.928;4.440;2023-11-19T09:17:16;24.63;;;4.20;;
21245;SDS011;10781;50.928;4.440;2023-11-19T09:19:43;21.55;;;3.85;;
21245;SDS011;10781;50.928;4.440;2023-11-19T09:22:08;16.60;;;3.65;;
21245;SDS011;10781;50.928;4.440;2023-11-19T09:24:34;20.13;;;3.88;;
21245;SDS011;10781;50.928;4.440;2023-11-19T09:27:00;21.92;;;3.75;;
21245;SDS011;10781;50.928;4.440;2023-11-19T09:29:25;25.17;;;4.15;;
21245;SDS011;10781;50.928;4.440;2023-11-19T09:31:51;17.55;;;3.53;;
21245;SDS011;10781;50.928;4.440;2023-11-19T09:34:16;17.08;;;3.95;;
21245;SDS011;10781;50.928;4.440;2023-11-19T09:36:42;19.55;;;3.70;;
21245;SDS011;10781;50.928;4.440;2023-11-19T09:39:13;20.20;;;4.28;;
21245;SDS011;10781;50.928;4.440;2023-11-19T09:41:43;12.95;;;2.95;;
21245;SDS011;10781;50.928;4.440;2023-11-19T09:44:10;16.73;;;3.63;;
21245;SDS011;10781;50.928;4.440;2023-11-19T09:46:42;23.30;;;3.63;;
21245;SDS011;10781;50.928;4.440;2023-11-19T09:49:11;14.93;;;3.25;;
21245;SDS011;10781;50.928;4.440;2023-11-19T09:51:37;20.30;;;3.83;;
21245;SDS011;10781;50.928;4.440;2023-11-19T09:54:03;19.92;;;3.70;;
21245;SDS011;10781;50.928;4.440;2023-11-19T09:56:29;17.27;;;3.35;;
21245;SDS011;10781;50.928;4.440;2023-11-19T09:58:55;17.20;;;3.47;;
21245;SDS011;10781;50.928;4.440;2023-11-19T10:01:21;17.95;;;3.40;;
21245;SDS011;10781;50.928;4.440;2023-11-19T10:03:47;15.30;;;3.58;;
21245;SDS011;10781;50.928;4.440;2023-11-19T10:06:14;16.75;;;3.67;;
21245;SDS011;10781;50.928;4.440;2023-11-19T10:08:41;17.08;;;3.83;;
21245;SDS011;10781;50.928;4.440;2023-11-19T10:11:09;16.80;;;3.30;;
21245;SDS011;10781;50.928;4.440;2023-11-19T10:13:38;13.85;;;2.90;;
21245;SDS011;10781;50.928;4.440;2023-11-19T10:16:08;19.73;;;3.70;;
21245;SDS011;10781;50.928;4.440;2023-11-19T10:18:36;11.68;;;3.20;;
21245;SDS011;10781;50.928;4.440;2023-11-19T10:21:03;14.65;;;3.50;;
21245;SDS011;10781;50.928;4.440;2023-11-19T10:23:31;16.48;;;3.45;;
21245;SDS011;10781;50.928;4.440;2023-11-19T10:26:03;19.02;;;3.55;;
21245;SDS011;10781;50.928;4.440;2023-11-19T10:28:38;17.83;;;3.42;;
21245;SDS011;10781;50.928;4.440;2023-11-19T10:31:08;17.52;;;2.80;;
21245;SDS011;10781;50.928;4.440;2023-11-19T10:33:33;20.00;;;3.53;;
21245;SDS011;10781;50.928;4.440;2023-11-19T10:35:59;17.08;;;3.15;;
21245;SDS011;10781;50.928;4.440;2023-11-19T10:38:25;18.08;;;4.18;;
21245;SDS011;10781;50.928;4.440;2023-11-19T10:40:51;14.48;;;3.30;;
21245;SDS011;10781;50.928;4.440;2023-11-19T10:43:18;15.07;;;3.60;;
21245;SDS011;10781;50.928;4.440;2023-11-19T10:45:44;18.77;;;3.45;;
21245;SDS011;10781;50.928;4.440;2023-11-19T10:48:10;19.23;;;3.30;;
21245;SDS011;10781;50.928;4.440;2023-11-19T10:50:38;23.08;;;4.30;;
21245;SDS011;10781;50.928;4.440;2023-11-19T10:53:08;14.80;;;3.53;;
21245;SDS011;10781;50.928;4.440;2023-11-19T10:55:35;15.95;;;3.50;;
21245;SDS011;10781;50.928;4.440;2023-11-19T10:58:09;15.93;;;3.20;;
21245;SDS011;10781;50.928;4.440;2023-11-19T11:00:38;17.15;;;3.75;;
21245;SDS011;10781;50.928;4.440;2023-11-19T11:05:42;19.50;;;4.50;;
21245;SDS011;10781;50.928;4.440;2023-11-19T11:08:09;12.48;;;3.28;;
21245;SDS011;10781;50.928;4.440;2023-11-19T11:10:37;17.60;;;2.97;;
21245;SDS011;10781;50.928;4.440;2023-11-19T11:13:07;15.13;;;2.75;;
21245;SDS011;10781;50.928;4.440;2023-11-19T11:15:33;13.23;;;2.80;;
21245;SDS011;10781;50.928;4.440;2023-11-19T11:18:02;20.67;;;3.60;;
21245;SDS011;10781;50.928;4.440;2023-11-19T11:20:29;15.07;;;2.95;;
21245;SDS011;10781;50.928;4.440;2023-11-19T11:28:40;16.40;;;3.20;;
21245;SDS011;10781;50.928;4.440;2023-11-19T11:36:25;17.42;;;3.47;;
21245;SDS011;10781;50.928;4.440;2023-11-19T11:38:51;15.43;;;3.72;;
21245;SDS011;10781;50.928;4.440;2023-11-19T11:41:22;19.70;;;3.92;;
21245;SDS011;10781;50.928;4.440;2023-11-19T11:43:51;18.05;;;3.40;;
21245;SDS011;10781;50.928;4.440;2023-11-19T11:54:26;15.60;;;3.53;;
21245;SDS011;10781;50.928;4.440;2023-11-19T11:57:12;19.88;;;3.72;;
21245;SDS011;10781;50.928;4.440;2023-11-19T12:02:19;15.02;;;3.30;;
21245;SDS011;10781;50.928;4.440;2023-11-19T12:04:51;17.48;;;3.08;;
21245;SDS011;10781;50.928;4.440;2023-11-19T12:07:21;15.48;;;3.75;;
21245;SDS011;10781;50.928;4.440;2023-11-19T12:09:51;13.25;;;2.90;;
21245;SDS011;10781;50.928;4.440;2023-11-19T12:12:37;12.82;;;3.05;;
21245;SDS011;10781;50.928;4.440;2023-11-19T12:15:06;19.58;;;3.20;;
21245;SDS011;10781;50.928;4.440;2023-11-19T12:17:36;18.63;;;3.50;;
21245;SDS011;10781;50.928;4.440;2023-11-19T12:20:14;15.68;;;3.15;;
21245;SDS011;10781;50.928;4.440;2023-11-19T12:22:42;14.27;;;3.10;;
21245;SDS011;10781;50.928;4.440;2023-11-19T12:25:09;19.95;;;3.42;;
21245;SDS011;10781;50.928;4.440;2023-11-19T12:27:42;15.60;;;3.25;;
21245;SDS011;10781;50.928;4.440;2023-11-19T12:30:17;14.18;;;2.80;;
21245;SDS011;10781;50.928;4.440;2023-11-19T12:32:54;17.58;;;3.03;;
21245;SDS011;10781;50.928;4.440;2023-11-19T12:35:19;13.57;;;2.85;;
21245;SDS011;10781;50.928;4.440;2023-11-19T12:37:46;16.10;;;2.83;;
21245;SDS011;10781;50.928;4.440;2023-11-19T12:40:19;15.60;;;2.85;;
21245;SDS011;10781;50.928;4.440;2023-11-19T12:42:48;13.32;;;2.75;;
21245;SDS011;10781;50.928;4.440;2023-11-19T12:45:15;15.00;;;3.03;;
21245;SDS011;10781;50.928;4.440;2023-11-19T12:47:45;15.60;;;3.00;;
21245;SDS011;10781;50.928;4.440;2023-11-19T12:50:15;17.33;;;3.20;;
21245;SDS011;10781;50.928;4.440;2023-11-19T12:52:56;18.33;;;3.20;;
21245;SDS011;10781;50.928;4.440;2023-11-19T12:55:32;17.75;;;3.00;;
21245;SDS011;10781;50.928;4.440;2023-11-19T12:57:57;14.40;;;3.53;;
21245;SDS011;10781;50.928;4.440;2023-11-19T13:00:24;10.15;;;2.92;;
21245;SDS011;10781;50.928;4.440;2023-11-19T13:02:55;24.67;;;3.65;;
21245;SDS011;10781;50.928;4.440;2023-11-19T13:05:26;13.10;;;2.90;;
21245;SDS011;10781;50.928;4.440;2023-11-19T13:07:58;17.55;;;4.00;;
21245;SDS011;10781;50.928;4.440;2023-11-19T13:10:24;16.52;;;3.22;;
21245;SDS011;10781;50.928;4.440;2023-11-19T13:13:00;16.10;;;3.22;;
21245;SDS011;10781;50.928;4.440;2023-11-19T13:15:27;17.42;;;3.30;;
21245;SDS011;10781;50.928;4.440;2023-11-19T13:17:52;15.25;;;3.10;;
21245;SDS011;10781;50.928;4.440;2023-11-19T13:20:18;16.95;;;3.65;;
21245;SDS011;10781;50.928;4.440;2023-11-19T13:22:54;15.50;;;3.58;;
21245;SDS011;10781;50.928;4.440;2023-11-19T13:25:23;19.15;;;3.50;;
21245;SDS011;10781;50.928;4.440;2023-11-19T13:27:48;19.83;;;3.60;;
21245;SDS011;10781;50.928;4.440;2023-11-19T13:30:14;21.85;;;3.63;;
21245;SDS011;10781;50.928;4.440;2023-11-19T13:32:41;17.70;;;3.78;;
21245;SDS011;10781;50.928;4.440;2023-11-19T13:35:08;18.10;;;3.08;;
21245;SDS011;10781;50.928;4.440;2023-11-19T13:37:34;18.17;;;3.40;;
21245;SDS011;10781;50.928;4.440;2023-11-19T13:40:00;12.23;;;2.90;;
21245;SDS011;10781;50.928;4.440;2023-11-19T13:42:26;13.88;;;3.65;;
21245;SDS011;10781;50.928;4.440;2023-11-19T13:44:52;16.15;;;2.97;;
21245;SDS011;10781;50.928;4.440;2023-11-19T13:47:18;15.07;;;3.30;;
21245;SDS011;10781;50.928;4.440;2023-11-19T13:49:44;20.10;;;3.70;;
21245;SDS011;10781;50.928;4.440;2023-11-19T13:52:10;14.10;;;3.40;;
21245;SDS011;10781;50.928;4.440;2023-11-19T13:54:36;19.17;;;3.47;;
21245;SDS011;10781;50.928;4.440;2023-11-19T13:57:02;14.48;;;3.15;;
21245;SDS011;10781;50.928;4.440;2023-11-19T13:59:29;17.23;;;3.55;;
21245;SDS011;10781;50.928;4.440;2023-11-19T14:01:57;27.13;;;5.82;;
21245;SDS011;10781;50.928;4.440;2023-11-19T14:04:23;16.77;;;4.18;;
21245;SDS011;10781;50.928;4.440;2023-11-19T14:06:49;14.10;;;3.08;;
21245;SDS011;10781;50.928;4.440;2023-11-19T14:09:15;21.58;;;3.75;;
21245;SDS011;10781;50.928;4.440;2023-11-19T14:11:41;17.50;;;3.70;;
21245;SDS011;10781;50.928;4.440;2023-11-19T14:14:07;12.73;;;3.55;;
21245;SDS011;10781;50.928;4.440;2023-11-19T14:16:33;19.92;;;4.55;;
21245;SDS011;10781;50.928;4.440;2023-11-19T14:18:59;14.48;;;3.58;;
21245;SDS011;10781;50.928;4.440;2023-11-19T14:21:25;18.13;;;3.92;;
21245;SDS011;10781;50.928;4.440;2023-11-19T14:23:51;20.45;;;3.63;;
21245;SDS011;10781;50.928;4.440;2023-11-19T14:26:17;12.77;;;3.53;;
21245;SDS011;10781;50.928;4.440;2023-11-19T15:39:52;17.90;;;3.90;;
21245;SDS011;10781;50.928;4.440;2023-11-19T15:42:18;15.98;;;3.72;;
21245;SDS011;10781;50.928;4.440;2023-11-19T15:44:43;21.90;;;5.45;;
21245;SDS011;10781;50.928;4.440;2023-11-19T15:47:10;21.98;;;5.18;;
21245;SDS011;10781;50.928;4.440;2023-11-19T15:49:36;22.45;;;4.18;;
21245;SDS011;10781;50.928;4.440;2023-11-19T15:52:03;17.27;;;3.35;;
21245;SDS011;10781;50.928;4.440;2023-11-19T15:54:31;24.90;;;3.83;;
21245;SDS011;10781;50.928;4.440;2023-11-19T15:56:59;19.25;;;3.70;;
21245;SDS011;10781;50.928;4.440;2023-11-19T15:59:26;15.65;;;3.10;;
21245;SDS011;10781;50.928;4.440;2023-11-19T16:01:52;17.38;;;3.05;;
21245;SDS011;10781;50.928;4.440;2023-11-19T16:04:17;13.15;;;2.83;;
21245;SDS011;10781;50.928;4.440;2023-11-19T16:06:43;12.82;;;2.40;;
21245;SDS011;10781;50.928;4.440;2023-11-19T16:09:09;13.18;;;2.80;;
21245;SDS011;10781;50.928;4.440;2023-11-19T16:11:40;17.02;;;2.90;;
21245;SDS011;10781;50.928;4.440;2023-11-19T16:14:10;20.50;;;3.10;;